createdAt,value
2017-11-14T00:00:24.162Z,3.30
2017-11-14T00:00:58.875Z,2.58
2017-11-14T00:01:33.596Z,2.90
2017-11-14T00:02:08.130Z,3.05
2017-11-14T00:02:42.935Z,3.30
2017-11-14T00:03:17.636Z,3.28
2017-11-14T00:03:52.379Z,3.72
2017-11-14T00:04:27.092Z,3.05
2017-11-14T00:05:01.804Z,3.30
2017-11-14T00:05:36.521Z,3.33
2017-11-14T00:06:11.228Z,3.25
2017-11-14T00:06:45.929Z,2.70
2017-11-14T00:07:20.644Z,3.20
2017-11-14T00:07:55.359Z,3.10
2017-11-14T00:08:30.066Z,2.95
2017-11-14T00:09:04.428Z,3.20
2017-11-14T00:09:39.482Z,3.80
2017-11-14T00:10:14.195Z,2.80
2017-11-14T00:11:29.984Z,2.45
2017-11-14T00:12:04.702Z,2.80
2017-11-14T00:12:39.413Z,3.25
2017-11-14T00:13:14.104Z,2.70
2017-11-14T00:13:48.818Z,2.22
2017-11-14T00:14:23.509Z,2.65
2017-11-14T00:14:58.270Z,2.95
2017-11-14T00:15:32.973Z,2.33
2017-11-14T00:16:07.689Z,2.28
2017-11-14T00:16:42.399Z,3.15
2017-11-14T00:17:17.113Z,2.42
2017-11-14T00:17:51.811Z,2.42
2017-11-14T00:18:26.510Z,2.80
2017-11-14T00:19:00.875Z,3.10
2017-11-14T00:19:35.419Z,2.70
2017-11-14T00:20:10.466Z,3.08
2017-11-14T00:20:45.160Z,3.03
2017-11-14T00:21:19.871Z,2.85
2017-11-14T00:21:54.581Z,2.75
2017-11-14T00:22:29.308Z,2.55
2017-11-14T00:23:04.730Z,2.92
2017-11-14T00:23:39.440Z,2.70
2017-11-14T00:24:14.145Z,2.80
2017-11-14T00:24:48.833Z,2.50
2017-11-14T00:25:23.913Z,2.85
2017-11-14T00:25:58.641Z,3.10
2017-11-14T00:26:33.361Z,2.45
2017-11-14T00:27:08.458Z,2.65
2017-11-14T00:27:43.213Z,2.15
2017-11-14T00:28:18.236Z,2.47
2017-11-14T00:28:52.938Z,2.22
2017-11-14T00:29:27.641Z,2.25
2017-11-14T00:30:02.350Z,2.08
2017-11-14T00:30:37.313Z,2.20
2017-11-14T00:31:12.012Z,2.25
2017-11-14T00:31:47.008Z,1.87
2017-11-14T00:32:21.720Z,2.37
2017-11-14T00:32:56.433Z,1.80
2017-11-14T00:33:31.159Z,2.42
2017-11-14T00:34:05.885Z,2.30
2017-11-14T00:34:40.581Z,2.22
2017-11-14T00:35:15.293Z,1.75
2017-11-14T00:35:50.015Z,2.40
2017-11-14T00:36:24.848Z,2.70
2017-11-14T00:37:00.012Z,2.70
2017-11-14T00:37:34.720Z,2.45
2017-11-14T00:38:09.748Z,2.20
2017-11-14T00:38:44.460Z,2.95
2017-11-14T00:39:19.171Z,2.35
2017-11-14T00:39:54.757Z,2.97
2017-11-14T00:40:29.486Z,2.83
2017-11-14T00:41:04.236Z,2.85
2017-11-14T00:41:38.936Z,2.80
2017-11-14T00:42:13.806Z,2.58
2017-11-14T00:42:48.744Z,2.67
2017-11-14T00:43:23.470Z,2.62
2017-11-14T00:43:58.177Z,2.37
2017-11-14T00:44:32.891Z,2.30
2017-11-14T00:45:08.549Z,2.70
2017-11-14T00:45:43.264Z,2.53
2017-11-14T00:46:17.990Z,2.40
2017-11-14T00:46:52.812Z,2.30
2017-11-14T00:47:27.523Z,2.35
2017-11-14T00:48:03.236Z,2.45
2017-11-14T00:48:37.979Z,1.90
2017-11-14T00:49:12.691Z,2.20
2017-11-14T00:49:47.389Z,2.40
2017-11-14T00:50:22.088Z,2.05
2017-11-14T00:50:57.789Z,2.40
2017-11-14T00:51:34.398Z,2.62
2017-11-14T00:52:09.116Z,2.50
2017-11-14T00:52:43.824Z,2.03
2017-11-14T00:53:18.556Z,2.33
2017-11-14T00:53:53.291Z,2.15
2017-11-14T00:54:27.990Z,2.55
2017-11-14T00:55:02.697Z,2.05
2017-11-14T00:55:37.412Z,2.30
2017-11-14T00:56:14.055Z,2.20
2017-11-14T00:56:49.230Z,2.40
2017-11-14T00:57:23.943Z,1.90
2017-11-14T00:57:58.667Z,2.20
2017-11-14T00:58:33.369Z,2.92
2017-11-14T00:59:08.092Z,2.12
2017-11-14T00:59:42.800Z,2.65
2017-11-14T01:00:17.514Z,2.45
2017-11-14T01:00:52.227Z,2.45
2017-11-14T01:01:26.950Z,2.25
2017-11-14T01:02:01.669Z,1.80
2017-11-14T01:02:36.366Z,2.45
2017-11-14T01:03:11.081Z,1.92
2017-11-14T01:03:45.797Z,2.20
2017-11-14T01:04:20.508Z,2.30
2017-11-14T01:04:55.224Z,2.10
2017-11-14T01:05:29.936Z,2.12
2017-11-14T01:06:04.649Z,1.77
2017-11-14T01:06:39.379Z,2.50
2017-11-14T01:07:14.420Z,1.73
2017-11-14T01:07:49.173Z,1.90
2017-11-14T01:08:23.901Z,2.00
2017-11-14T01:08:58.595Z,2.50
2017-11-14T01:09:33.305Z,2.60
2017-11-14T01:10:08.023Z,1.58
2017-11-14T01:10:42.738Z,2.20
2017-11-14T01:11:17.453Z,1.90
2017-11-14T01:11:52.165Z,1.95
2017-11-14T01:12:26.909Z,2.08
2017-11-14T01:13:01.626Z,2.40
2017-11-14T01:13:36.342Z,1.95
2017-11-14T01:14:11.055Z,2.00
2017-11-14T01:14:45.769Z,2.20
2017-11-14T01:15:20.483Z,2.03
2017-11-14T01:15:55.197Z,2.30
2017-11-14T01:16:29.907Z,1.85
2017-11-14T01:17:04.626Z,1.90
2017-11-14T01:17:39.658Z,1.83
2017-11-14T01:18:14.359Z,2.20
2017-11-14T01:18:49.076Z,2.10
2017-11-14T01:19:23.787Z,2.35
2017-11-14T01:19:58.502Z,2.15
2017-11-14T01:20:33.216Z,2.35
2017-11-14T01:21:07.925Z,2.20
2017-11-14T01:21:42.655Z,2.00
2017-11-14T01:22:17.376Z,2.17
2017-11-14T01:22:52.404Z,2.10
2017-11-14T01:23:27.119Z,2.00
2017-11-14T01:24:01.848Z,1.90
2017-11-14T01:24:36.557Z,1.85
2017-11-14T01:25:11.270Z,1.98
2017-11-14T01:25:45.983Z,2.40
2017-11-14T01:26:20.684Z,2.00
2017-11-14T01:26:55.433Z,2.10
2017-11-14T01:27:30.135Z,2.03
2017-11-14T01:28:05.050Z,2.08
2017-11-14T01:28:39.792Z,2.00
2017-11-14T01:29:14.692Z,2.37
2017-11-14T01:29:49.417Z,2.03
2017-11-14T01:30:24.136Z,1.83
2017-11-14T01:30:58.852Z,2.25
2017-11-14T01:31:33.564Z,1.85
2017-11-14T01:32:08.277Z,2.85
2017-11-14T01:32:42.633Z,2.08
2017-11-14T01:33:17.644Z,2.65
2017-11-14T01:33:52.347Z,2.30
2017-11-14T01:34:27.205Z,2.25
2017-11-14T01:35:01.925Z,2.58
2017-11-14T01:35:36.625Z,1.90
2017-11-14T01:36:11.346Z,2.30
2017-11-14T01:36:46.096Z,2.40
2017-11-14T01:37:20.803Z,2.40
2017-11-14T01:37:55.167Z,2.30
2017-11-14T01:38:29.904Z,1.87
2017-11-14T01:39:04.262Z,2.58
2017-11-14T01:39:38.985Z,2.10
2017-11-14T01:40:13.362Z,2.05
2017-11-14T01:40:48.061Z,2.17
2017-11-14T01:41:22.808Z,2.10
2017-11-14T01:41:57.511Z,2.42
2017-11-14T01:42:32.307Z,2.47
2017-11-14T01:43:07.026Z,2.30
2017-11-14T01:43:42.081Z,1.70
2017-11-14T01:44:16.791Z,2.50
2017-11-14T01:44:51.500Z,2.35
2017-11-14T01:45:26.227Z,2.25
2017-11-14T01:46:00.945Z,2.45
2017-11-14T01:46:35.651Z,2.58
2017-11-14T01:47:10.017Z,2.40
2017-11-14T01:47:44.396Z,2.30
2017-11-14T01:48:19.097Z,2.67
2017-11-14T01:48:54.100Z,2.03
2017-11-14T01:49:29.892Z,2.50
2017-11-14T01:50:04.285Z,2.70
2017-11-14T01:50:38.986Z,2.47
2017-11-14T01:51:13.365Z,2.60
2017-11-14T01:51:48.073Z,2.42
2017-11-14T01:52:22.910Z,2.20
2017-11-14T01:52:57.608Z,1.90
2017-11-14T01:53:32.317Z,2.30
2017-11-14T01:54:07.269Z,2.60
2017-11-14T01:54:41.983Z,2.50
2017-11-14T01:55:16.733Z,2.50
2017-11-14T01:55:51.443Z,2.50
2017-11-14T01:56:26.153Z,2.45
2017-11-14T01:57:00.871Z,2.22
2017-11-14T01:57:35.584Z,2.30
2017-11-14T01:58:10.293Z,2.30
2017-11-14T01:58:45.024Z,2.35
2017-11-14T01:59:19.419Z,2.50
2017-11-14T01:59:54.128Z,2.30
2017-11-14T02:00:34.436Z,3.15
2017-11-14T02:01:08.787Z,2.30
2017-11-14T02:01:43.158Z,2.90
2017-11-14T02:02:17.881Z,2.70
2017-11-14T02:02:52.243Z,2.33
2017-11-14T02:03:26.957Z,2.00
2017-11-14T02:04:01.685Z,2.60
2017-11-14T02:04:36.676Z,2.17
2017-11-14T02:05:11.086Z,2.47
2017-11-14T02:05:45.434Z,2.47
2017-11-14T02:06:19.882Z,2.67
2017-11-14T02:06:54.248Z,2.25
2017-11-14T02:07:28.607Z,2.42
2017-11-14T02:08:03.016Z,2.22
2017-11-14T02:08:37.373Z,2.25
2017-11-14T02:09:11.742Z,2.25
2017-11-14T02:09:46.436Z,2.40
2017-11-14T02:10:20.794Z,2.37
2017-11-14T02:10:55.161Z,2.12
2017-11-14T02:11:29.533Z,2.50
2017-11-14T02:12:03.876Z,2.05
2017-11-14T02:12:38.589Z,2.37
2017-11-14T02:13:13.301Z,2.40
2017-11-14T02:13:48.019Z,2.20
2017-11-14T02:14:22.910Z,1.92
2017-11-14T02:14:57.814Z,2.40
2017-11-14T02:15:32.686Z,2.22
2017-11-14T02:16:07.386Z,2.10
2017-11-14T02:16:42.098Z,2.70
2017-11-14T02:17:16.800Z,2.90
2017-11-14T02:17:51.514Z,2.42
2017-11-14T02:18:26.241Z,2.40
2017-11-14T02:19:00.944Z,2.58
2017-11-14T02:19:35.324Z,2.33
2017-11-14T02:20:09.696Z,2.50
2017-11-14T02:20:44.077Z,2.28
2017-11-14T02:21:18.442Z,1.92
2017-11-14T02:21:52.817Z,2.33
2017-11-14T02:22:27.525Z,2.25
2017-11-14T02:23:01.884Z,2.40
2017-11-14T02:23:36.236Z,2.58
2017-11-14T02:24:10.589Z,2.50
2017-11-14T02:24:45.027Z,2.40
2017-11-14T02:25:20.043Z,2.25
2017-11-14T02:25:59.876Z,2.30
2017-11-14T02:26:34.039Z,2.33
2017-11-14T02:27:10.058Z,2.25
2017-11-14T02:27:44.238Z,2.50
2017-11-14T02:28:18.587Z,2.47
2017-11-14T02:28:52.949Z,2.40
2017-11-14T02:29:27.301Z,2.67
2017-11-14T02:30:01.671Z,2.62
2017-11-14T02:30:36.767Z,2.10
2017-11-14T02:31:11.137Z,2.75
2017-11-14T02:31:45.505Z,3.03
2017-11-14T02:32:19.881Z,2.70
2017-11-14T02:32:54.254Z,2.45
2017-11-14T02:33:28.808Z,2.80
2017-11-14T02:34:03.515Z,2.58
2017-11-14T02:34:37.880Z,3.20
2017-11-14T02:35:12.277Z,2.92
2017-11-14T02:35:47.053Z,2.70
2017-11-14T02:36:21.748Z,2.80
2017-11-14T02:36:56.125Z,2.78
2017-11-14T02:37:30.493Z,3.20
2017-11-14T02:38:05.219Z,3.40
2017-11-14T02:38:39.583Z,2.95
2017-11-14T02:39:13.940Z,3.17
2017-11-14T02:39:48.295Z,2.95
2017-11-14T02:40:22.668Z,2.45
2017-11-14T02:40:57.038Z,3.53
2017-11-14T02:41:31.416Z,2.92
2017-11-14T02:42:05.784Z,3.03
2017-11-14T02:42:40.162Z,3.42
2017-11-14T02:43:14.531Z,3.42
2017-11-14T02:43:48.909Z,3.40
2017-11-14T02:44:23.616Z,3.20
2017-11-14T02:44:58.013Z,3.40
2017-11-14T02:45:32.377Z,3.53
2017-11-14T02:46:07.107Z,3.40
2017-11-14T02:46:41.460Z,3.28
2017-11-14T02:47:15.868Z,3.60
2017-11-14T02:47:50.220Z,3.42
2017-11-14T02:48:24.920Z,3.87
2017-11-14T02:48:59.281Z,3.80
2017-11-14T02:49:33.659Z,3.87
2017-11-14T02:50:08.017Z,3.72
2017-11-14T02:50:42.716Z,3.87
2017-11-14T02:51:17.455Z,3.70
2017-11-14T02:51:51.864Z,3.92
2017-11-14T02:52:26.245Z,3.87
2017-11-14T02:53:00.613Z,3.80
2017-11-14T02:53:34.972Z,4.10
2017-11-14T02:54:09.372Z,4.18
2017-11-14T02:54:43.765Z,4.47
2017-11-14T02:55:18.676Z,3.50
2017-11-14T02:55:53.400Z,4.35
2017-11-14T02:56:28.537Z,3.62
2017-11-14T02:57:02.886Z,3.72
2017-11-14T02:57:37.599Z,4.32
2017-11-14T02:58:11.953Z,3.78
2017-11-14T02:58:46.673Z,4.07
2017-11-14T02:59:21.404Z,4.05
2017-11-14T02:59:56.345Z,4.35
2017-11-14T03:00:31.120Z,4.35
2017-11-14T03:01:05.837Z,3.97
2017-11-14T03:01:40.543Z,4.35
2017-11-14T03:02:15.231Z,4.00
2017-11-14T03:02:49.921Z,4.45
2017-11-14T03:03:24.283Z,4.18
2017-11-14T03:03:58.976Z,4.05
2017-11-14T03:04:35.416Z,4.40
2017-11-14T03:05:10.125Z,3.85
2017-11-14T03:05:44.833Z,4.60
2017-11-14T03:06:19.534Z,4.20
2017-11-14T03:06:54.401Z,4.30
2017-11-14T03:07:29.115Z,4.53
2017-11-14T03:08:03.827Z,4.05
2017-11-14T03:08:38.184Z,4.00
2017-11-14T03:09:12.898Z,4.25
2017-11-14T03:09:47.602Z,4.37
2017-11-14T03:10:21.973Z,4.20
2017-11-14T03:10:56.349Z,4.10
2017-11-14T03:11:30.701Z,4.57
2017-11-14T03:12:05.721Z,4.05
2017-11-14T03:12:40.449Z,4.80
2017-11-14T03:13:14.808Z,4.55
2017-11-14T03:13:49.536Z,4.45
2017-11-14T03:14:24.242Z,4.40
2017-11-14T03:14:58.956Z,4.07
2017-11-14T03:15:33.671Z,4.28
2017-11-14T03:16:08.385Z,5.05
2017-11-14T03:16:43.098Z,4.20
2017-11-14T03:17:17.481Z,4.20
2017-11-14T03:17:52.185Z,4.60
2017-11-14T03:18:26.554Z,4.53
2017-11-14T03:19:01.245Z,4.20
2017-11-14T03:19:35.942Z,4.50
2017-11-14T03:20:10.656Z,4.85
2017-11-14T03:20:45.341Z,4.53
2017-11-14T03:21:20.048Z,4.50
2017-11-14T03:21:54.733Z,4.40
2017-11-14T03:22:29.768Z,5.03
2017-11-14T03:23:04.495Z,4.75
2017-11-14T03:23:39.209Z,5.22
2017-11-14T03:24:13.569Z,4.78
2017-11-14T03:24:48.274Z,4.57
2017-11-14T03:25:22.991Z,5.07
2017-11-14T03:25:57.704Z,4.68
2017-11-14T03:26:32.080Z,5.12
2017-11-14T03:27:06.420Z,5.45
2017-11-14T03:27:41.477Z,5.10
2017-11-14T03:28:16.190Z,5.00
2017-11-14T03:28:50.891Z,5.25
2017-11-14T03:29:25.615Z,5.07
2017-11-14T03:30:00.334Z,4.80
2017-11-14T03:30:34.694Z,5.07
2017-11-14T03:31:09.521Z,4.70
2017-11-14T03:31:43.892Z,4.10
2017-11-14T03:32:18.256Z,4.72
2017-11-14T03:32:52.641Z,4.75
2017-11-14T03:33:27.338Z,5.00
2017-11-14T03:34:01.709Z,5.18
2017-11-14T03:34:36.064Z,5.40
2017-11-14T03:35:10.770Z,4.80
2017-11-14T03:35:45.476Z,5.12
2017-11-14T03:36:20.190Z,4.78
2017-11-14T03:36:54.903Z,5.00
2017-11-14T03:37:29.625Z,5.15
2017-11-14T03:38:04.642Z,5.28
2017-11-14T03:38:39.364Z,5.10
2017-11-14T03:39:14.084Z,5.30
2017-11-14T03:39:48.797Z,5.00
2017-11-14T03:40:23.160Z,5.45
2017-11-14T03:40:58.176Z,4.47
2017-11-14T03:41:32.878Z,5.10
2017-11-14T03:42:07.238Z,4.72
2017-11-14T03:42:41.588Z,4.87
2017-11-14T03:43:16.588Z,4.80
2017-11-14T03:43:51.296Z,4.95
2017-11-14T03:44:25.999Z,4.57
2017-11-14T03:45:00.693Z,5.70
2017-11-14T03:45:35.045Z,5.15
2017-11-14T03:46:09.408Z,5.20
2017-11-14T03:46:44.114Z,5.18
2017-11-14T03:47:18.811Z,5.40
2017-11-14T03:47:53.194Z,4.95
2017-11-14T03:48:28.221Z,4.75
2017-11-14T03:49:02.907Z,5.43
2017-11-14T03:49:37.616Z,4.78
2017-11-14T03:50:12.331Z,4.53
2017-11-14T03:50:46.685Z,4.80
2017-11-14T03:51:21.043Z,4.87
2017-11-14T03:51:55.402Z,5.70
2017-11-14T03:52:29.763Z,6.12
2017-11-14T03:53:04.144Z,5.05
2017-11-14T03:53:39.182Z,4.45
2017-11-14T03:54:14.713Z,4.97
2017-11-14T03:54:49.436Z,4.95
2017-11-14T03:55:24.144Z,4.65
2017-11-14T03:55:58.868Z,4.90
2017-11-14T03:56:33.586Z,4.70
2017-11-14T03:57:08.285Z,4.87
2017-11-14T03:57:42.669Z,4.47
2017-11-14T03:58:17.377Z,5.20
2017-11-14T03:58:52.435Z,4.57
2017-11-14T03:59:26.961Z,5.05
2017-11-14T04:00:01.661Z,5.07
2017-11-14T04:00:36.016Z,4.35
2017-11-14T04:01:10.373Z,4.82
2017-11-14T04:01:45.082Z,5.30
2017-11-14T04:02:19.799Z,4.25
2017-11-14T04:02:54.509Z,5.15
2017-11-14T04:03:29.464Z,4.75
2017-11-14T04:04:04.135Z,4.80
2017-11-14T04:04:38.861Z,5.22
2017-11-14T04:05:13.572Z,5.03
2017-11-14T04:05:48.283Z,4.37
2017-11-14T04:06:22.644Z,4.53
2017-11-14T04:06:57.345Z,4.90
2017-11-14T04:07:32.128Z,4.80
2017-11-14T04:08:06.820Z,5.32
2017-11-14T04:08:41.544Z,4.37
2017-11-14T04:09:16.362Z,4.87
2017-11-14T04:09:51.301Z,5.10
2017-11-14T04:10:25.479Z,4.28
2017-11-14T04:10:59.998Z,4.70
2017-11-14T04:11:34.707Z,5.20
2017-11-14T04:12:09.417Z,4.75
2017-11-14T04:12:44.133Z,5.32
2017-11-14T04:13:18.847Z,4.47
2017-11-14T04:13:53.562Z,5.32
2017-11-14T04:14:28.579Z,4.30
2017-11-14T04:15:03.296Z,4.60
2017-11-14T04:15:37.656Z,5.10
2017-11-14T04:16:12.389Z,4.10
2017-11-14T04:16:47.093Z,5.80
2017-11-14T04:17:21.809Z,4.43
2017-11-14T04:17:56.513Z,5.30
2017-11-14T04:18:30.865Z,4.55
2017-11-14T04:19:05.656Z,5.10
2017-11-14T04:19:40.628Z,5.32
2017-11-14T04:20:15.514Z,5.10
2017-11-14T04:20:50.209Z,5.50
2017-11-14T04:21:24.909Z,4.80
2017-11-14T04:21:59.619Z,4.87
2017-11-14T04:22:34.333Z,5.47
2017-11-14T04:23:09.040Z,5.35
2017-11-14T04:23:43.756Z,5.78
2017-11-14T04:24:18.472Z,5.43
2017-11-14T04:24:53.454Z,4.85
2017-11-14T04:25:28.144Z,5.43
2017-11-14T04:26:02.859Z,5.07
2017-11-14T04:26:37.569Z,5.90
2017-11-14T04:27:12.281Z,5.62
2017-11-14T04:27:46.965Z,5.43
2017-11-14T04:28:21.670Z,5.25
2017-11-14T04:28:56.372Z,5.65
2017-11-14T04:29:31.056Z,5.45
2017-11-14T04:30:05.812Z,6.18
2017-11-14T04:30:40.512Z,5.35
2017-11-14T04:31:15.248Z,5.80
2017-11-14T04:31:49.958Z,5.93
2017-11-14T04:32:24.668Z,5.47
2017-11-14T04:32:59.371Z,5.15
2017-11-14T04:33:34.060Z,5.43
2017-11-14T04:34:08.755Z,5.65
2017-11-14T04:34:43.457Z,5.30
2017-11-14T04:35:18.187Z,5.10
2017-11-14T04:35:52.885Z,6.10
2017-11-14T04:36:27.598Z,5.90
2017-11-14T04:37:02.313Z,5.57
2017-11-14T04:37:37.028Z,5.60
2017-11-14T04:38:11.740Z,6.32
2017-11-14T04:38:46.453Z,5.70
2017-11-14T04:39:21.173Z,5.25
2017-11-14T04:39:55.884Z,5.90
2017-11-14T04:40:31.443Z,5.68
2017-11-14T04:41:06.219Z,5.80
2017-11-14T04:41:40.915Z,5.80
2017-11-14T04:42:15.623Z,5.90
2017-11-14T04:42:50.324Z,5.62
2017-11-14T04:43:25.040Z,5.75
2017-11-14T04:43:59.729Z,5.90
2017-11-14T04:44:34.422Z,5.60
2017-11-14T04:45:09.125Z,6.07
2017-11-14T04:45:44.152Z,5.80
2017-11-14T04:46:18.847Z,7.03
2017-11-14T04:46:53.540Z,7.12
2017-11-14T04:47:28.236Z,6.22
2017-11-14T04:48:02.932Z,6.25
2017-11-14T04:48:37.637Z,5.75
2017-11-14T04:49:12.336Z,6.07
2017-11-14T04:49:47.044Z,6.57
2017-11-14T04:50:21.757Z,6.07
2017-11-14T04:50:56.808Z,6.25
2017-11-14T04:51:31.517Z,6.70
2017-11-14T04:52:06.219Z,6.07
2017-11-14T04:52:40.920Z,6.55
2017-11-14T04:53:15.654Z,7.05
2017-11-14T04:53:50.894Z,6.03
2017-11-14T04:54:25.599Z,7.30
2017-11-14T04:55:00.298Z,6.90
2017-11-14T04:55:34.998Z,6.75
2017-11-14T04:56:09.728Z,6.68
2017-11-14T04:56:44.440Z,6.35
2017-11-14T04:57:19.184Z,7.10
2017-11-14T04:57:53.880Z,6.80
2017-11-14T04:58:28.591Z,7.47
2017-11-14T04:59:03.297Z,6.15
2017-11-14T04:59:37.992Z,6.62
2017-11-14T05:00:12.711Z,7.65
2017-11-14T05:00:47.429Z,7.25
2017-11-14T05:01:22.241Z,6.80
2017-11-14T05:01:56.956Z,6.62
2017-11-14T05:02:31.664Z,7.35
2017-11-14T05:03:06.379Z,7.45
2017-11-14T05:03:41.093Z,7.32
2017-11-14T05:04:15.794Z,7.00
2017-11-14T05:04:50.506Z,7.15
2017-11-14T05:05:25.213Z,8.05
2017-11-14T05:05:59.922Z,7.40
2017-11-14T05:06:34.662Z,7.22
2017-11-14T05:07:09.409Z,7.32
2017-11-14T05:07:44.120Z,7.80
2017-11-14T05:08:18.821Z,7.30
2017-11-14T05:08:53.552Z,7.37
2017-11-14T05:09:28.265Z,8.10
2017-11-14T05:10:02.973Z,8.00
2017-11-14T05:10:37.688Z,8.38
2017-11-14T05:11:12.393Z,8.27
2017-11-14T05:11:47.428Z,8.20
2017-11-14T05:12:22.139Z,7.90
2017-11-14T05:12:56.853Z,8.05
2017-11-14T05:13:31.569Z,7.90
2017-11-14T05:14:06.287Z,8.75
2017-11-14T05:14:41.008Z,8.80
2017-11-14T05:15:15.727Z,8.35
2017-11-14T05:15:50.457Z,8.05
2017-11-14T05:16:25.175Z,8.77
2017-11-14T05:16:59.923Z,9.32
2017-11-14T05:17:34.644Z,7.62
2017-11-14T05:18:09.368Z,8.73
2017-11-14T05:18:44.073Z,8.40
2017-11-14T05:19:18.779Z,8.50
2017-11-14T05:19:53.595Z,7.78
2017-11-14T05:20:28.312Z,8.98
2017-11-14T05:21:03.028Z,8.52
2017-11-14T05:21:37.754Z,8.40
2017-11-14T05:22:12.518Z,9.10
2017-11-14T05:22:47.233Z,8.32
2017-11-14T05:23:22.086Z,9.18
2017-11-14T05:23:56.801Z,8.80
2017-11-14T05:24:31.335Z,10.20
2017-11-14T05:25:06.045Z,9.35
2017-11-14T05:25:40.766Z,9.55
2017-11-14T05:26:15.466Z,9.05
2017-11-14T05:26:50.193Z,9.23
2017-11-14T05:27:24.934Z,10.43
2017-11-14T05:27:59.658Z,8.57
2017-11-14T05:28:34.034Z,8.98
2017-11-14T05:29:08.778Z,9.95
2017-11-14T05:29:43.632Z,9.05
2017-11-14T05:30:18.341Z,8.95
2017-11-14T05:30:53.073Z,9.02
2017-11-14T05:31:27.789Z,9.65
2017-11-14T05:32:02.512Z,9.95
2017-11-14T05:32:37.538Z,9.55
2017-11-14T05:33:12.256Z,9.40
2017-11-14T05:33:46.997Z,9.90
2017-11-14T05:34:21.714Z,9.70
2017-11-14T05:34:56.428Z,10.43
2017-11-14T05:35:31.140Z,9.35
2017-11-14T05:36:05.862Z,9.63
2017-11-14T05:36:40.570Z,9.57
2017-11-14T05:37:15.285Z,9.73
2017-11-14T05:37:50.356Z,9.35
2017-11-14T05:38:25.095Z,10.18
2017-11-14T05:38:59.631Z,9.80
2017-11-14T05:39:34.399Z,9.82
2017-11-14T05:40:09.116Z,9.35
2017-11-14T05:40:43.828Z,10.80
2017-11-14T05:41:18.551Z,11.43
2017-11-14T05:41:53.280Z,10.73
2017-11-14T05:42:28.024Z,10.70
2017-11-14T05:43:02.772Z,11.15
2017-11-14T05:43:37.480Z,9.20
2017-11-14T05:44:12.191Z,9.15
2017-11-14T05:44:46.892Z,9.25
2017-11-14T05:45:21.642Z,9.88
2017-11-14T05:45:56.435Z,9.32
2017-11-14T05:46:31.182Z,8.77
2017-11-14T05:47:05.894Z,9.70
2017-11-14T05:47:40.611Z,8.45
2017-11-14T05:48:15.356Z,11.50
2017-11-14T05:48:50.057Z,9.50
2017-11-14T05:49:24.785Z,9.60
2017-11-14T05:49:59.509Z,10.07
2017-11-14T05:50:34.254Z,10.50
2017-11-14T05:51:08.974Z,9.60
2017-11-14T05:51:43.695Z,9.68
2017-11-14T05:52:18.431Z,9.20
2017-11-14T05:52:53.147Z,9.45
2017-11-14T05:53:27.883Z,10.13
2017-11-14T05:54:02.597Z,9.77
2017-11-14T05:54:37.311Z,10.20
2017-11-14T05:55:12.168Z,10.38
2017-11-14T05:55:46.952Z,10.10
2017-11-14T05:56:21.664Z,9.80
2017-11-14T05:56:56.373Z,9.93
2017-11-14T05:57:31.135Z,10.75
2017-11-14T05:58:05.872Z,10.75
2017-11-14T05:58:40.890Z,9.73
2017-11-14T05:59:15.600Z,10.20
2017-11-14T05:59:50.344Z,10.10
2017-11-14T06:00:25.071Z,9.77
2017-11-14T06:00:59.793Z,11.30
2017-11-14T06:01:34.506Z,10.10
2017-11-14T06:02:08.888Z,9.55
2017-11-14T06:02:43.612Z,10.70
2017-11-14T06:03:18.332Z,9.60
2017-11-14T06:03:52.739Z,10.05
2017-11-14T06:04:27.455Z,11.30
2017-11-14T06:05:02.183Z,10.80
2017-11-14T06:05:36.888Z,10.15
2017-11-14T06:06:11.602Z,10.50
2017-11-14T06:06:46.325Z,10.60
2017-11-14T06:07:21.097Z,10.10
2017-11-14T06:07:55.869Z,10.65
2017-11-14T06:08:30.583Z,10.10
2017-11-14T06:09:05.304Z,10.32
2017-11-14T06:09:40.015Z,9.82
2017-11-14T06:10:14.812Z,9.63
2017-11-14T06:10:49.533Z,10.20
2017-11-14T06:11:24.255Z,9.90
2017-11-14T06:11:59.070Z,9.43
2017-11-14T06:12:33.792Z,9.65
2017-11-14T06:13:08.501Z,9.80
2017-11-14T06:13:43.205Z,10.40
2017-11-14T06:14:18.249Z,10.32
2017-11-14T06:14:52.976Z,10.23
2017-11-14T06:15:27.695Z,10.25
2017-11-14T06:16:02.429Z,10.05
2017-11-14T06:16:37.160Z,9.68
2017-11-14T06:17:11.876Z,10.40
2017-11-14T06:17:46.603Z,9.95
2017-11-14T06:18:21.333Z,10.60
2017-11-14T06:18:56.156Z,10.80
2017-11-14T06:19:30.970Z,10.73
2017-11-14T06:20:05.374Z,10.60
2017-11-14T06:20:40.103Z,11.27
2017-11-14T06:21:14.845Z,9.90
2017-11-14T06:21:49.586Z,9.75
2017-11-14T06:22:24.301Z,10.13
2017-11-14T06:22:59.010Z,10.60
2017-11-14T06:23:33.380Z,10.68
2017-11-14T06:24:08.101Z,11.27
2017-11-14T06:24:42.879Z,9.45
2017-11-14T06:25:17.592Z,9.95
2017-11-14T06:25:52.307Z,10.05
2017-11-14T06:26:27.024Z,10.27
2017-11-14T06:27:01.740Z,9.98
2017-11-14T06:27:36.457Z,10.15
2017-11-14T06:28:11.197Z,10.95
2017-11-14T06:28:45.913Z,11.23
2017-11-14T06:29:20.659Z,11.35
2017-11-14T06:29:55.391Z,10.60
2017-11-14T06:30:30.109Z,11.02
2017-11-14T06:31:04.840Z,10.13
2017-11-14T06:31:39.552Z,11.10
2017-11-14T06:32:14.265Z,9.20
2017-11-14T06:32:48.989Z,11.32
2017-11-14T06:33:23.701Z,9.82
2017-11-14T06:33:58.802Z,9.85
2017-11-14T06:34:33.531Z,10.65
2017-11-14T06:35:08.527Z,11.35
2017-11-14T06:35:43.242Z,10.23
2017-11-14T06:36:17.980Z,10.93
2017-11-14T06:36:52.713Z,10.88
2017-11-14T06:37:27.409Z,9.20
2017-11-14T06:38:02.120Z,9.60
2017-11-14T06:38:36.846Z,10.10
2017-11-14T06:39:11.588Z,10.05
2017-11-14T06:39:46.318Z,10.10
2017-11-14T06:40:21.360Z,9.15
2017-11-14T06:40:56.074Z,10.38
2017-11-14T06:41:30.846Z,9.15
2017-11-14T06:42:05.569Z,10.50
2017-11-14T06:42:40.306Z,10.60
2017-11-14T06:43:15.035Z,9.13
2017-11-14T06:43:49.757Z,9.98
2017-11-14T06:44:24.467Z,9.40
2017-11-14T06:44:59.216Z,9.98
2017-11-14T06:45:34.254Z,9.52
2017-11-14T06:46:08.979Z,10.57
2017-11-14T06:46:43.705Z,10.23
2017-11-14T06:47:18.440Z,10.68
2017-11-14T06:47:53.140Z,9.90
2017-11-14T06:48:27.893Z,10.30
2017-11-14T06:49:02.603Z,9.25
2017-11-14T06:49:37.320Z,10.70
2017-11-14T06:50:12.036Z,10.45
2017-11-14T06:50:46.784Z,9.23
2017-11-14T06:51:21.489Z,9.75
2017-11-14T06:51:56.223Z,10.82
2017-11-14T06:52:30.953Z,9.75
2017-11-14T06:53:05.680Z,9.70
2017-11-14T06:53:40.399Z,10.50
2017-11-14T06:54:15.109Z,10.70
2017-11-14T06:54:49.821Z,9.43
2017-11-14T06:55:24.536Z,11.15
2017-11-14T06:55:59.282Z,11.05
2017-11-14T06:56:33.984Z,11.18
2017-11-14T06:57:08.699Z,12.13
2017-11-14T06:57:43.422Z,12.60
2017-11-14T06:58:18.134Z,11.57
2017-11-14T06:58:52.871Z,10.43
2017-11-14T06:59:27.590Z,13.82
2017-11-14T07:00:02.320Z,11.02
2017-11-14T07:00:37.049Z,11.45
2017-11-14T07:01:12.818Z,10.43
2017-11-14T07:01:47.543Z,11.38
2017-11-14T07:02:22.256Z,10.82
2017-11-14T07:02:57.007Z,11.02
2017-11-14T07:03:31.721Z,10.25
2017-11-14T07:04:06.542Z,11.68
2017-11-14T07:04:41.247Z,11.65
2017-11-14T07:05:15.964Z,11.27
2017-11-14T07:05:50.716Z,11.10
2017-11-14T07:06:25.804Z,11.82
2017-11-14T07:07:00.528Z,9.77
2017-11-14T07:07:35.264Z,12.05
2017-11-14T07:08:10.142Z,11.05
2017-11-14T07:08:44.887Z,11.30
2017-11-14T07:09:19.641Z,10.95
2017-11-14T07:09:54.353Z,11.60
2017-11-14T07:10:29.082Z,10.75
2017-11-14T07:11:03.919Z,11.15
2017-11-14T07:11:39.049Z,11.65
2017-11-14T07:12:13.755Z,11.30
2017-11-14T07:12:48.466Z,11.57
2017-11-14T07:13:23.184Z,11.70
2017-11-14T07:13:57.896Z,11.00
2017-11-14T07:14:32.608Z,12.15
2017-11-14T07:15:07.331Z,12.23
2017-11-14T07:15:42.073Z,12.48
2017-11-14T07:16:16.787Z,12.20
2017-11-14T07:16:51.878Z,12.40
2017-11-14T07:17:26.623Z,11.77
2017-11-14T07:18:01.333Z,11.55
2017-11-14T07:18:35.715Z,11.95
2017-11-14T07:19:10.433Z,12.18
2017-11-14T07:19:45.145Z,12.30
2017-11-14T07:20:19.871Z,12.20
2017-11-14T07:20:54.599Z,12.77
2017-11-14T07:21:29.313Z,11.80
2017-11-14T07:22:04.062Z,11.52
2017-11-14T07:22:38.782Z,11.73
2017-11-14T07:23:13.316Z,10.82
2017-11-14T07:23:48.032Z,10.50
2017-11-14T07:24:22.587Z,10.85
2017-11-14T07:24:57.296Z,11.38
2017-11-14T07:25:32.010Z,12.25
2017-11-14T07:26:06.733Z,12.90
2017-11-14T07:26:41.451Z,11.43
2017-11-14T07:27:16.144Z,12.07
2017-11-14T07:27:50.859Z,12.00
2017-11-14T07:28:25.569Z,12.07
2017-11-14T07:29:00.287Z,11.95
2017-11-14T07:29:35.021Z,13.23
2017-11-14T07:30:09.741Z,12.27
2017-11-14T07:30:44.462Z,11.63
2017-11-14T07:31:19.177Z,12.60
2017-11-14T07:31:53.715Z,11.30
2017-11-14T07:32:28.741Z,11.60
2017-11-14T07:33:03.465Z,11.15
2017-11-14T07:33:38.214Z,10.85
2017-11-14T07:34:12.950Z,11.80
2017-11-14T07:34:47.506Z,11.43
2017-11-14T07:35:22.209Z,10.88
2017-11-14T07:35:56.914Z,12.02
2017-11-14T07:36:31.633Z,11.88
2017-11-14T07:37:06.368Z,11.23
2017-11-14T07:37:41.473Z,11.27
2017-11-14T07:38:16.187Z,11.27
2017-11-14T07:38:50.900Z,11.15
2017-11-14T07:39:25.616Z,11.68
2017-11-14T07:40:00.330Z,11.02